Time;durP1;ratioP1;P1;durP2;ratioP2;P2;SDS_P1;SDS_P2;PMS_P1;PMS_P2;Temp;Humidity;BMP_temperature;BMP_pressure;BME280_temperature;BME280_humidity;BME280_pressure;Samples;Min_cycle;Max_cycle;Signal;HPM_P1;HPM_P2
2022/08/06 00:01:09;;;;;;;;;4.00;2.00;;;;;20.96;37.03;102237.59;4905945;28;45338;-74
2022/08/06 00:03:34;;;;;;;;;0.25;0.25;;;;;20.94;37.26;102230.66;4906131;29;45314;-75
2022/08/06 00:06:00;;;;;;;;;0.75;0.75;;;;;20.91;36.92;102232.59;4906100;29;45240;-74
2022/08/06 00:08:26;;;;;;;;;2.00;1.00;;;;;20.90;37.34;102230.88;4905816;28;45371;-74
2022/08/06 00:10:51;;;;;;;;;0.75;0.75;;;;;20.87;37.17;102232.97;4906974;29;45322;-78
2022/08/06 00:13:18;;;;;;;;;1.75;1.00;;;;;20.83;37.23;102237.69;4906493;29;45285;-77
2022/08/06 00:15:45;;;;;;;;;1.75;1.00;;;;;20.79;37.41;102243.44;4909647;28;45347;-77
2022/08/06 00:18:10;;;;;;;;;1.00;0.50;;;;;20.77;37.01;102240.84;4906110;28;45424;-76
2022/08/06 00:20:36;;;;;;;;;0.25;0.25;;;;;20.74;37.84;102234.91;4905965;28;45242;-79
2022/08/06 00:23:01;;;;;;;;;1.75;0.00;;;;;20.72;37.70;102243.06;4905784;28;45315;-77
2022/08/06 00:25:27;;;;;;;;;0.00;0.00;;;;;20.65;37.73;102239.16;4912805;28;45348;-75
2022/08/06 00:27:53;;;;;;;;;3.00;0.75;;;;;20.63;37.92;102238.41;4924417;28;46115;-76
2022/08/06 00:30:19;;;;;;;;;0.75;0.75;;;;;20.57;38.25;102230.84;4924491;28;45617;-77
2022/08/06 00:32:45;;;;;;;;;1.50;0.50;;;;;20.58;38.11;102229.88;4924488;28;45276;-75
2022/08/06 00:35:10;;;;;;;;;1.25;1.25;;;;;20.57;38.38;102246.94;4925066;28;45278;-79
2022/08/06 00:37:36;;;;;;;;;0.75;0.75;;;;;20.58;38.54;102248.63;4914602;28;45393;-77
2022/08/06 00:40:02;;;;;;;;;0.75;0.75;;;;;20.54;38.17;102244.50;4904002;28;45365;-79
2022/08/06 00:42:28;;;;;;;;;1.25;0.50;;;;;20.53;38.56;102251.66;4905550;28;45278;-77
2022/08/06 00:44:54;;;;;;;;;2.50;0.75;;;;;20.51;38.36;102248.25;4906678;29;45274;-76
2022/08/06 00:47:20;;;;;;;;;1.25;0.00;;;;;20.50;38.74;102246.53;4905476;28;45547;-77
2022/08/06 00:49:45;;;;;;;;;2.25;0.75;;;;;20.48;38.85;102253.00;4905183;29;45364;-77
2022/08/06 00:52:11;;;;;;;;;0.75;0.75;;;;;20.49;38.54;102252.03;4904914;29;45371;-79
2022/08/06 00:54:37;;;;;;;;;0.50;0.50;;;;;20.46;38.52;102244.22;4905023;28;45532;-76
2022/08/06 00:57:04;;;;;;;;;0.00;0.00;;;;;20.42;38.54;102250.75;4903508;29;47139;-79
2022/08/06 00:59:30;;;;;;;;;0.00;0.00;;;;;20.40;38.51;102253.56;4905058;29;45247;-77
2022/08/06 01:01:55;;;;;;;;;1.00;1.00;;;;;20.40;38.52;102252.69;4905072;29;45279;-77
2022/08/06 01:04:21;;;;;;;;;0.75;0.75;;;;;20.38;39.12;102254.63;4905566;29;45465;-76
2022/08/06 01:06:46;;;;;;;;;0.75;0.75;;;;;20.36;39.04;102257.41;4905323;29;45400;-77
2022/08/06 01:09:12;;;;;;;;;0.50;0.50;;;;;20.35;39.09;102261.06;4904461;29;45370;-76
2022/08/06 01:11:38;;;;;;;;;2.75;0.75;;;;;20.30;39.21;102250.72;4904891;29;45228;-76
2022/08/06 01:14:05;;;;;;;;;0.00;0.00;;;;;20.29;39.17;102253.50;4912371;28;45504;-77
2022/08/06 01:16:48;;;;;;;;;4.50;0.75;;;;;20.26;39.66;102256.41;4922607;28;46280;-75
2022/08/06 01:19:40;;;;;;;;;1.00;1.00;;;;;20.23;39.18;102254.84;4904817;29;45410;-75
2022/08/06 01:22:30;;;;;;;;;0.25;0.25;;;;;20.21;39.56;102264.78;4904760;29;45482;-76
2022/08/06 01:25:47;;;;;;;;;2.50;0.75;;;;;20.20;39.77;102259.56;4908509;28;45351;-76
2022/08/06 01:28:35;;;;;;;;;0.50;0.50;;;;;20.15;39.57;102265.28;4883132;29;45297;-76
2022/08/06 01:31:12;;;;;;;;;3.00;1.25;;;;;20.12;39.83;102268.16;4923555;28;45244;-76
2022/08/06 01:33:50;;;;;;;;;1.00;1.00;;;;;20.10;39.74;102271.94;4923764;28;45437;-76
2022/08/06 01:36:40;;;;;;;;;1.00;1.00;;;;;20.04;40.19;102275.91;4922404;28;45323;-79
2022/08/06 01:39:07;;;;;;;;;2.00;0.50;;;;;20.01;40.29;102270.81;4904388;29;46410;-76
2022/08/06 01:41:46;;;;;;;;;1.00;1.00;;;;;19.98;40.25;102271.00;4904426;29;45282;-78
2022/08/06 01:44:20;;;;;;;;;2.50;1.50;;;;;19.94;40.37;102259.69;4904212;29;45387;-79
2022/08/06 01:46:52;;;;;;;;;0.75;0.75;;;;;19.94;40.14;102253.50;4904996;29;45375;-78
2022/08/06 01:49:27;;;;;;;;;3.00;2.00;;;;;19.93;40.60;102263.34;4904123;29;46113;-76
2022/08/06 01:51:57;;;;;;;;;1.75;0.50;;;;;19.89;40.42;102261.00;4903172;29;45634;-76
2022/08/06 01:54:25;;;;;;;;;0.50;0.50;;;;;19.88;40.31;102268.19;4903975;29;45348;-77
2022/08/06 01:56:53;;;;;;;;;2.25;0.50;;;;;19.81;40.79;102266.91;4907426;29;45647;-73
2022/08/06 01:59:22;;;;;;;;;0.00;0.00;;;;;19.75;40.97;102275.41;4913299;28;46303;-75
2022/08/06 02:01:53;;;;;;;;;1.25;0.50;;;;;19.72;40.56;102272.94;4904996;29;45275;-77
2022/08/06 02:04:22;;;;;;;;;2.50;0.75;;;;;19.67;40.58;102269.75;4903603;29;45373;-77
2022/08/06 02:06:50;;;;;;;;;1.00;1.00;;;;;19.63;41.13;102271.81;4903061;29;45414;-76
2022/08/06 02:09:19;;;;;;;;;0.75;0.75;;;;;19.62;40.79;102263.91;4904077;29;45238;-78
2022/08/06 02:11:50;;;;;;;;;2.50;2.00;;;;;19.60;41.38;102266.69;4904263;28;45328;-76
2022/08/06 02:14:18;;;;;;;;;1.00;1.00;;;;;19.60;40.99;102268.53;4904674;29;45513;-77
2022/08/06 02:16:44;;;;;;;;;4.00;1.00;;;;;19.62;41.60;102263.91;4904609;29;45551;-77
2022/08/06 02:19:13;;;;;;;;;3.00;2.00;;;;;19.62;41.47;102264.75;4904653;29;46212;-77
2022/08/06 02:21:42;;;;;;;;;2.50;1.50;;;;;19.63;41.58;102265.59;4906017;29;45379;-79
2022/08/06 02:24:09;;;;;;;;;1.50;1.50;;;;;19.59;41.91;102267.66;4907437;28;45195;-77
2022/08/06 02:26:38;;;;;;;;;3.25;1.00;;;;;19.55;41.60;102259.94;4924308;28;45314;-78
2022/08/06 02:29:06;;;;;;;;;3.25;2.00;;;;;19.55;41.68;102258.13;4925767;28;45544;-77
2022/08/06 02:31:33;;;;;;;;;1.75;1.75;;;;;19.56;41.78;102261.66;4926128;28;45394;-78
2022/08/06 02:33:59;;;;;;;;;3.00;2.00;;;;;19.55;41.42;102258.13;4921881;28;45437;-77
2022/08/06 02:36:41;;;;;;;;;2.75;2.00;;;;;19.52;41.76;102261.88;4924391;28;45243;-77
2022/08/06 02:39:13;;;;;;;;;3.75;0.25;;;;;19.50;41.91;102269.13;4905684;28;47819;-77
2022/08/06 02:41:45;;;;;;;;;1.00;1.00;;;;;19.41;41.71;102277.81;4906960;28;45274;-79
2022/08/06 02:44:42;;;;;;;;;6.00;1.00;;;;;19.34;41.97;102265.00;4906799;29;45307;-76
2022/08/06 02:47:13;;;;;;;;;1.75;1.00;;;;;19.31;41.85;102270.59;4906039;28;45336;-76
2022/08/06 02:49:45;;;;;;;;;1.00;1.00;;;;;19.28;42.21;102268.16;4906988;29;45367;-79
2022/08/06 02:52:19;;;;;;;;;1.50;1.50;;;;;19.24;42.12;102257.66;4905412;29;45294;-80
2022/08/06 02:54:56;;;;;;;;;0.50;0.50;;;;;19.24;42.50;102263.00;4906707;28;45212;-78
2022/08/06 02:57:28;;;;;;;;;3.25;1.00;;;;;19.23;42.42;102266.66;4906811;29;45344;-78
2022/08/06 03:00:01;;;;;;;;;0.00;0.00;;;;;19.21;42.26;102265.06;4907059;28;45630;-79
2022/08/06 03:02:29;;;;;;;;;2.50;1.50;;;;;19.16;42.25;102264.53;4906860;28;45382;-76
2022/08/06 03:04:57;;;;;;;;;4.25;2.00;;;;;19.14;42.45;102267.31;4907151;28;45457;-79
2022/08/06 03:07:27;;;;;;;;;2.75;2.00;;;;;19.11;42.44;102259.50;4906854;28;45581;-78
2022/08/06 03:09:54;;;;;;;;;3.00;2.00;;;;;19.10;42.49;102264.94;4906438;28;45314;-79
2022/08/06 03:12:21;;;;;;;;;2.00;1.00;;;;;19.13;42.79;102259.41;4906754;29;45316;-80
2022/08/06 03:14:48;;;;;;;;;1.00;1.00;;;;;19.14;42.64;102255.78;4906809;29;45172;-79
2022/08/06 03:17:16;;;;;;;;;3.00;2.00;;;;;19.09;42.71;102258.75;4905465;29;45558;-79
2022/08/06 03:19:44;;;;;;;;;1.50;1.00;;;;;19.07;42.64;102255.34;4906691;28;45479;-80
2022/08/06 03:22:11;;;;;;;;;2.00;1.00;;;;;19.05;42.70;102254.59;4907109;28;45318;-79
2022/08/06 03:24:39;;;;;;;;;3.25;1.75;;;;;19.02;43.21;102245.94;4908143;28;45232;-76
2022/08/06 03:27:07;;;;;;;;;3.00;2.00;;;;;19.00;42.80;102245.19;4925371;28;45460;-81
2022/08/06 03:29:35;;;;;;;;;2.50;1.00;;;;;18.96;42.84;102249.94;4923805;28;46892;-79
2022/08/06 03:32:01;;;;;;;;;1.00;1.00;;;;;18.95;43.19;102250.84;4923860;28;45373;-79
2022/08/06 03:34:29;;;;;;;;;2.00;2.00;;;;;18.95;43.32;102253.53;4925301;28;45244;-77
2022/08/06 03:36:56;;;;;;;;;1.25;1.00;;;;;18.92;43.26;102256.44;4918733;28;45489;-79
2022/08/06 03:39:24;;;;;;;;;1.75;1.75;;;;;18.86;42.97;102257.69;4905481;29;46934;-78
2022/08/06 03:41:52;;;;;;;;;2.00;2.00;;;;;18.82;43.63;102250.88;4907995;29;45324;-79
2022/08/06 03:44:17;;;;;;;;;0.00;0.00;;;;;18.82;43.60;102252.69;4906821;28;45365;-76
2022/08/06 03:46:49;;;;;;;;;1.25;1.25;;;;;18.80;43.54;102251.94;4906420;28;45311;-79
2022/08/06 03:49:21;;;;;;;;;3.00;1.00;;;;;18.80;43.61;102257.28;4905911;29;46127;-78
2022/08/06 03:51:49;;;;;;;;;2.50;1.00;;;;;18.80;43.79;102259.94;4906214;28;45334;-79
2022/08/06 03:54:19;;;;;;;;;3.75;1.00;;;;;18.79;43.83;102256.41;4904102;28;45249;-78
2022/08/06 03:56:47;;;;;;;;;4.00;2.00;;;;;18.79;43.86;102253.75;4906077;28;45313;-78
2022/08/06 03:59:14;;;;;;;;;1.75;1.00;;;;;18.79;43.87;102258.25;4905976;29;45386;-78
2022/08/06 04:01:45;;;;;;;;;1.25;1.25;;;;;18.77;44.02;102258.34;4904581;28;45264;-76
2022/08/06 04:04:11;;;;;;;;;1.00;1.00;;;;;18.76;43.74;102259.31;4904775;29;45436;-77
2022/08/06 04:06:37;;;;;;;;;3.25;2.00;;;;;18.73;43.84;102254.19;4906113;28;45772;-77
2022/08/06 04:09:05;;;;;;;;;2.50;1.00;;;;;18.73;44.10;102256.88;4906009;29;45336;-76
2022/08/06 04:11:32;;;;;;;;;2.25;1.00;;;;;18.76;43.90;102258.47;4905489;29;45374;-79
2022/08/06 04:13:59;;;;;;;;;2.25;1.50;;;;;18.77;43.98;102258.34;4906043;29;45279;-78
2022/08/06 04:16:26;;;;;;;;;5.25;2.25;;;;;18.77;43.72;102263.69;4904284;28;45454;-78
2022/08/06 04:18:55;;;;;;;;;1.75;1.75;;;;;18.77;43.79;102266.34;4905711;29;45394;-79
2022/08/06 04:21:23;;;;;;;;;4.25;2.25;;;;;18.78;44.07;102267.22;4905585;28;45317;-79
2022/08/06 04:23:50;;;;;;;;;1.75;1.25;;;;;18.78;44.01;102265.41;4905924;28;45592;-78
2022/08/06 04:26:19;;;;;;;;;3.50;2.00;;;;;18.79;43.83;102279.59;4919851;28;45353;-78
2022/08/06 04:28:47;;;;;;;;;1.00;1.00;;;;;18.75;43.72;102286.97;4922900;28;46784;-78
2022/08/06 04:31:13;;;;;;;;;4.50;1.50;;;;;18.74;43.96;102277.25;4924503;28;45194;-79
2022/08/06 04:33:40;;;;;;;;;1.25;1.25;;;;;18.73;43.88;102285.38;4925178;28;45428;-76
2022/08/06 04:36:08;;;;;;;;;3.75;1.00;;;;;18.68;43.83;102277.69;4926606;28;45566;-76
2022/08/06 04:38:34;;;;;;;;;1.75;1.75;;;;;18.61;44.09;102279.03;4905074;29;46109;-78
2022/08/06 04:41:02;;;;;;;;;3.00;2.00;;;;;18.61;44.32;102285.22;4904969;29;45188;-76
2022/08/06 04:43:29;;;;;;;;;4.50;2.00;;;;;18.54;43.97;102283.06;4904648;29;45237;-78
2022/08/06 04:45:56;;;;;;;;;4.00;2.00;;;;;18.54;43.85;102288.41;4905025;28;45501;-78
2022/08/06 04:48:24;;;;;;;;;3.25;1.00;;;;;18.54;43.94;102291.06;4905172;29;46266;-79
2022/08/06 04:50:49;;;;;;;;;2.00;2.00;;;;;18.53;43.86;102292.03;4904841;29;45306;-79
2022/08/06 04:53:18;;;;;;;;;1.25;0.50;;;;;18.53;44.22;102300.91;4904656;28;45610;-78
2022/08/06 04:55:45;;;;;;;;;2.00;2.00;;;;;18.49;43.94;102294.06;4904855;28;45445;-79
2022/08/06 04:58:13;;;;;;;;;1.00;1.00;;;;;18.49;44.06;102304.75;4905102;29;45329;-77
2022/08/06 05:00:44;;;;;;;;;1.50;1.50;;;;;18.49;43.98;102304.75;4904957;29;45473;-77
2022/08/06 05:03:10;;;;;;;;;2.00;2.00;;;;;18.49;43.93;102311.91;4905219;28;45391;-76
2022/08/06 05:05:44;;;;;;;;;3.00;1.75;;;;;18.49;44.11;102314.56;4904735;29;45321;-77
2022/08/06 05:08:12;;;;;;;;;2.50;2.00;;;;;18.51;44.18;102320.66;4905067;28;46244;-78
2022/08/06 05:10:53;;;;;;;;;2.25;1.00;;;;;18.51;44.38;102315.31;4904525;28;45362;-78
2022/08/06 05:13:22;;;;;;;;;1.50;1.50;;;;;18.53;44.13;102322.25;4904964;29;45511;-78
2022/08/06 05:15:53;;;;;;;;;2.00;2.00;;;;;18.53;44.29;102318.72;4904758;29;45613;-77
2022/08/06 05:18:39;;;;;;;;;2.25;2.25;;;;;18.53;44.18;102324.06;4905234;29;45484;-75
2022/08/06 05:21:07;;;;;;;;;2.50;2.00;;;;;18.52;44.14;102322.34;4905393;29;45471;-76
2022/08/06 05:23:38;;;;;;;;;2.75;1.50;;;;;18.50;44.30;102321.63;4905498;28;45560;-77
2022/08/06 05:26:04;;;;;;;;;1.50;1.50;;;;;18.44;44.37;102332.69;4917964;28;45334;-76
2022/08/06 05:28:30;;;;;;;;;2.00;2.00;;;;;18.38;44.00;102331.28;4922073;28;47731;-77
2022/08/06 05:30:56;;;;;;;;;3.00;1.00;;;;;18.39;44.21;102324.97;4923033;28;45286;-77
2022/08/06 05:33:27;;;;;;;;;3.00;2.00;;;;;18.36;44.24;102327.88;4904998;28;45353;-78
2022/08/06 05:35:54;;;;;;;;;1.25;1.25;;;;;18.37;44.31;102325.09;4913207;28;45400;-78
2022/08/06 05:38:20;;;;;;;;;1.50;1.50;;;;;18.41;44.44;102339.09;4904546;29;46086;-79
2022/08/06 05:40:45;;;;;;;;;2.00;1.00;;;;;18.44;44.16;102336.22;4903994;29;45351;-78
2022/08/06 05:43:11;;;;;;;;;5.25;1.00;;;;;18.47;44.25;102337.81;4904817;29;45322;-76
2022/08/06 05:45:40;;;;;;;;;2.00;0.25;;;;;18.51;44.23;102342.00;4904621;29;45286;-79
2022/08/06 05:48:07;;;;;;;;;2.00;2.00;;;;;18.57;44.21;102336.25;4904496;29;46109;-78
2022/08/06 05:50:37;;;;;;;;;1.00;1.00;;;;;18.62;44.26;102339.44;4904042;29;45321;-76
2022/08/06 05:53:11;;;;;;;;;1.25;1.00;;;;;18.62;44.31;102342.13;4904425;29;45457;-77
2022/08/06 05:55:45;;;;;;;;;3.25;2.00;;;;;18.65;44.27;102342.81;4904273;29;45464;-77
2022/08/06 05:58:17;;;;;;;;;4.00;2.00;;;;;18.73;43.88;102352.97;4904038;29;46003;-78
2022/08/06 06:00:43;;;;;;;;;5.00;2.00;;;;;18.74;44.16;102353.81;4904008;28;45184;-78
2022/08/06 06:03:13;;;;;;;;;1.00;1.00;;;;;18.80;43.83;102348.94;4904249;29;45331;-78
2022/08/06 06:05:40;;;;;;;;;2.75;1.00;;;;;18.86;43.72;102352.97;4904174;29;45471;-79
2022/08/06 06:08:08;;;;;;;;;1.00;1.00;;;;;18.90;44.10;102354.50;4904177;29;45407;-77
2022/08/06 06:10:35;;;;;;;;;1.50;1.00;;;;;18.93;43.54;102348.94;4903547;28;45427;-76
2022/08/06 06:13:05;;;;;;;;;2.00;2.00;;;;;18.99;43.67;102348.50;4904220;28;45343;-78
2022/08/06 06:15:38;;;;;;;;;2.00;1.00;;;;;19.06;43.72;102348.94;4904157;28;45275;-78
2022/08/06 06:18:15;;;;;;;;;4.00;2.00;;;;;19.10;43.62;102348.59;4904149;28;45613;-77
2022/08/06 06:20:44;;;;;;;;;1.00;1.00;;;;;19.14;43.07;102351.94;4904198;28;45266;-78
2022/08/06 06:23:17;;;;;;;;;2.00;2.00;;;;;19.20;43.25;102348.84;4904222;29;45330;-79
2022/08/06 06:26:09;;;;;;;;;3.50;2.00;;;;;19.29;43.16;102345.53;4914239;28;45228;-80
2022/08/06 06:28:55;;;;;;;;;2.50;2.00;;;;;19.32;43.04;102355.13;4920877;28;46984;-79
2022/08/06 06:32:05;;;;;;;;;2.75;2.75;;;;;19.44;43.00;102349.78;4923106;28;45240;-79
2022/08/06 06:34:50;;;;;;;;;2.00;2.00;;;;;19.59;42.83;102347.88;4882871;29;45340;-77
2022/08/06 06:37:40;;;;;;;;;2.00;2.00;;;;;19.67;42.69;102350.84;4876345;29;45459;-78
2022/08/06 06:40:18;;;;;;;;;1.75;1.75;;;;;19.76;42.93;102350.19;4891851;29;45281;-78
2022/08/06 06:42:58;;;;;;;;;2.00;2.00;;;;;19.87;42.29;102353.88;4919410;28;45497;-79
2022/08/06 06:45:33;;;;;;;;;2.50;2.00;;;;;19.96;42.74;102361.22;4920230;28;45308;-79
2022/08/06 06:48:13;;;;;;;;;1.00;1.00;;;;;20.01;42.22;102353.72;4903744;28;45771;-79
2022/08/06 06:50:45;;;;;;;;;1.00;1.00;;;;;20.06;41.80;102355.09;4904865;28;45489;-78
2022/08/06 06:53:12;;;;;;;;;0.25;0.25;;;;;20.05;42.08;102358.72;4916159;28;45358;-77
2022/08/06 06:55:43;;;;;;;;;0.00;0.00;;;;;20.04;41.75;102357.00;4914948;28;45256;-83
2022/08/06 06:58:21;;;;;;;;;0.00;0.00;;;;;20.04;41.50;102359.69;4903657;29;45346;-78
2022/08/06 07:00:47;;;;;;;;;0.00;0.00;;;;;20.10;41.18;102353.03;4903261;29;45276;-80
2022/08/06 07:03:16;;;;;;;;;0.00;0.00;;;;;20.20;41.68;102361.25;4912555;28;45449;-80
2022/08/06 07:05:45;;;;;;;;;1.00;1.00;;;;;20.28;41.19;102350.81;4903602;29;45247;-79
2022/08/06 07:08:14;;;;;;;;;1.25;1.25;;;;;20.32;41.11;102352.31;4911690;28;45465;-79
2022/08/06 07:10:43;;;;;;;;;0.75;0.25;;;;;20.37;40.93;102360.84;4908689;28;45980;-66
2022/08/06 07:13:11;;;;;;;;;2.25;0.50;;;;;20.47;41.09;102364.56;4913483;28;45738;-72
2022/08/06 07:15:40;;;;;;;;;1.25;0.00;;;;;20.57;41.38;102357.56;4935796;28;45547;-72
2022/08/06 07:18:07;;;;;;;;;0.75;0.75;;;;;20.66;40.94;102374.75;4924506;28;45600;-71
2022/08/06 07:20:34;;;;;;;;;0.00;0.00;;;;;20.73;40.45;102359.91;4921426;28;45437;-70
2022/08/06 07:23:04;;;;;;;;;2.75;1.00;;;;;20.81;40.76;102375.41;4914788;28;45442;-72
2022/08/06 07:25:37;;;;;;;;;1.00;1.00;;;;;20.85;40.66;102383.09;4908424;28;45371;-71
2022/08/06 07:28:04;;;;;;;;;0.75;0.00;;;;;20.90;40.21;102380.91;4906724;28;45288;-71
2022/08/06 07:30:32;;;;;;;;;0.25;0.25;;;;;20.94;40.29;102378.84;4924925;28;45976;-72
2022/08/06 07:32:59;;;;;;;;;1.50;0.00;;;;;20.97;40.17;102375.06;4911607;28;45418;-71
2022/08/06 07:35:25;;;;;;;;;0.50;0.50;;;;;20.97;39.69;102375.06;4914921;28;45305;-71
2022/08/06 07:37:57;;;;;;;;;0.00;0.00;;;;;20.97;39.64;102383.09;4927051;28;45275;-71
2022/08/06 07:40:47;;;;;;;;;0.25;0.00;;;;;21.02;39.32;102370.22;4914367;28;45516;-71
2022/08/06 07:43:23;;;;;;;;;0.00;0.00;;;;;21.07;39.50;102373.38;4921036;28;45393;-73
2022/08/06 07:45:50;;;;;;;;;1.00;1.00;;;;;21.12;39.47;102365.84;4916121;28;45457;-74
2022/08/06 07:48:22;;;;;;;;;0.00;0.00;;;;;21.19;39.26;102375.97;4916940;28;45347;-73
2022/08/06 07:50:51;;;;;;;;;0.00;0.00;;;;;21.25;39.16;102381.78;4916572;28;45312;-72
2022/08/06 07:53:19;;;;;;;;;0.00;0.00;;;;;21.32;39.18;102377.69;4915562;28;45384;-78
2022/08/06 07:55:47;;;;;;;;;1.00;0.25;;;;;21.36;38.64;102377.34;4918197;28;45450;-77
2022/08/06 07:58:15;;;;;;;;;0.50;0.00;;;;;21.43;38.98;102372.34;4916093;28;45357;-71
2022/08/06 08:00:43;;;;;;;;;0.50;0.50;;;;;21.53;38.86;102377.84;4916504;28;45444;-74
2022/08/06 08:08:41;;;;;;;;;1.00;0.25;;;;;21.49;37.93;102385.28;4916181;28;45172;-71
2022/08/06 08:11:08;;;;;;;;;1.75;0.00;;;;;21.45;37.68;102390.03;4914312;28;47056;-77
2022/08/06 08:13:36;;;;;;;;;0.25;0.00;;;;;21.49;37.67;102379.03;4919450;28;45343;-73
2022/08/06 08:16:03;;;;;;;;;2.00;0.50;;;;;21.52;37.54;102382.34;4918292;28;45454;-71
2022/08/06 08:18:30;;;;;;;;;1.50;0.00;;;;;21.55;37.19;102387.47;4918887;28;45554;-72
2022/08/06 08:20:59;;;;;;;;;0.00;0.00;;;;;21.60;37.13;102387.94;4915957;28;47587;-72
2022/08/06 08:23:28;;;;;;;;;0.75;0.75;;;;;21.60;37.23;102395.16;4917086;28;45476;-72
2022/08/06 08:25:57;;;;;;;;;0.75;0.75;;;;;21.65;36.88;102392.97;4916705;28;45302;-71
2022/08/06 08:28:23;;;;;;;;;0.00;0.00;;;;;21.71;36.82;102392.44;4921658;28;45343;-72
2022/08/06 08:30:49;;;;;;;;;0.00;0.00;;;;;21.76;37.08;102384.91;4919160;28;45393;-72
2022/08/06 08:33:17;;;;;;;;;0.00;0.00;;;;;21.86;37.02;102388.53;4913180;28;45417;-71
2022/08/06 08:35:43;;;;;;;;;0.25;0.00;;;;;21.92;36.59;102379.13;4923496;28;45334;-72
2022/08/06 08:38:09;;;;;;;;;0.00;0.00;;;;;21.94;36.50;102386.06;4918148;28;45412;-73
2022/08/06 08:40:36;;;;;;;;;0.00;0.00;;;;;21.98;36.21;102387.56;4918525;28;45499;-72
2022/08/06 08:43:04;;;;;;;;;0.50;0.00;;;;;22.03;36.14;102377.28;4917822;28;45460;-71
2022/08/06 08:45:31;;;;;;;;;1.00;0.00;;;;;22.10;35.97;102387.53;4915834;28;45409;-74
2022/08/06 08:47:58;;;;;;;;;0.00;0.00;;;;;22.13;35.84;102387.31;4924584;28;45567;-72
2022/08/06 08:50:30;;;;;;;;;0.00;0.00;;;;;22.13;35.70;102377.44;4924418;28;45307;-73
2022/08/06 08:53:22;;;;;;;;;0.00;0.00;;;;;22.15;35.41;102391.56;4924299;28;45275;-75
2022/08/06 08:55:48;;;;;;;;;0.00;0.00;;;;;22.17;35.29;102380.69;4924382;28;45265;-73
2022/08/06 08:58:14;;;;;;;;;0.00;0.00;;;;;22.20;35.22;102377.78;4924438;28;45178;-73
2022/08/06 09:00:40;;;;;;;;;0.00;0.00;;;;;22.23;34.92;102364.09;4924237;28;45328;-72
2022/08/06 09:03:07;;;;;;;;;1.00;0.75;;;;;22.28;35.14;102368.09;4924316;28;45341;-73
2022/08/06 09:05:34;;;;;;;;;0.00;0.00;;;;;22.36;34.93;102372.84;4924413;28;45291;-73
2022/08/06 09:08:02;;;;;;;;;0.00;0.00;;;;;22.43;35.02;102374.00;4922999;28;45592;-74
2022/08/06 09:10:29;;;;;;;;;0.00;0.00;;;;;22.48;34.80;102370.94;4923862;28;45619;-74
2022/08/06 09:12:54;;;;;;;;;1.75;0.00;;;;;22.51;34.61;102370.69;4923802;28;45329;-71
2022/08/06 09:15:20;;;;;;;;;0.00;0.00;;;;;22.58;34.64;102372.72;4924113;28;45360;-72
2022/08/06 09:17:46;;;;;;;;;0.00;0.00;;;;;22.61;34.20;102381.53;4924171;28;45330;-73
2022/08/06 09:20:12;;;;;;;;;0.00;0.00;;;;;22.68;34.18;102396.16;4923987;28;46050;-74
2022/08/06 09:22:37;;;;;;;;;2.00;0.00;;;;;22.68;33.55;102380.03;4923852;28;45322;-72
2022/08/06 09:25:03;;;;;;;;;0.50;0.50;;;;;22.71;33.90;102385.13;4923757;28;45325;-74
2022/08/06 09:27:34;;;;;;;;;1.00;0.00;;;;;22.74;33.14;102384.84;4923773;28;45342;-73
2022/08/06 09:30:03;;;;;;;;;0.00;0.00;;;;;22.74;33.02;102387.53;4923382;28;45341;-73
2022/08/06 09:32:46;;;;;;;;;0.00;0.00;;;;;22.84;33.07;102392.03;4922259;28;45290;-71
2022/08/06 09:35:24;;;;;;;;;1.50;0.00;;;;;22.90;33.23;102384.44;4922914;28;45448;-70
2022/08/06 09:37:59;;;;;;;;;0.00;0.00;;;;;22.97;32.76;102391.00;4923349;28;45517;-70
2022/08/06 09:40:25;;;;;;;;;1.25;0.00;;;;;22.96;32.57;102390.16;4921719;28;46119;-75
2022/08/06 09:42:50;;;;;;;;;0.00;0.00;;;;;23.04;32.43;102384.97;4923707;28;45310;-74
2022/08/06 09:45:18;;;;;;;;;0.00;0.00;;;;;23.13;32.59;102386.84;4923930;28;45291;-74
2022/08/06 09:47:45;;;;;;;;;2.50;1.00;;;;;23.15;32.58;102381.38;4923759;28;45283;-73
2022/08/06 09:50:11;;;;;;;;;1.75;0.00;;;;;23.18;32.70;102382.94;4923013;28;46005;-71
2022/08/06 09:52:36;;;;;;;;;0.50;0.50;;;;;23.24;32.47;102380.56;4923366;28;45264;-78
2022/08/06 09:55:02;;;;;;;;;1.50;0.00;;;;;23.29;32.45;102389.06;4923590;28;45397;-77
2022/08/06 09:57:45;;;;;;;;;2.50;2.25;;;;;23.30;31.75;102385.41;4923624;28;45354;-73
2022/08/06 10:00:11;;;;;;;;;0.00;0.00;;;;;23.33;31.99;102382.44;4923242;28;45584;-69
2022/08/06 10:02:38;;;;;;;;;1.00;0.00;;;;;23.37;31.52;102380.31;4923219;28;45338;-69
2022/08/06 10:05:13;;;;;;;;;1.00;1.00;;;;;23.39;31.77;102379.22;4923359;28;45427;-67
2022/08/06 10:07:39;;;;;;;;;1.50;0.00;;;;;23.47;31.82;102378.56;4923229;28;45542;-68
2022/08/06 10:10:06;;;;;;;;;1.00;0.00;;;;;23.56;31.90;102379.56;4922708;28;45321;-69
2022/08/06 10:12:32;;;;;;;;;0.00;0.00;;;;;23.54;31.35;102370.75;4922764;28;45347;-70
2022/08/06 10:14:58;;;;;;;;;0.00;0.00;;;;;23.57;31.30;102376.75;4923524;28;45215;-68
2022/08/06 10:17:25;;;;;;;;;0.00;0.00;;;;;23.65;31.41;102371.56;4923288;28;45373;-69
2022/08/06 10:20:13;;;;;;;;;1.00;1.00;;;;;23.71;31.46;102382.78;4922790;28;46045;-69
2022/08/06 10:22:54;;;;;;;;;0.00;0.00;;;;;23.72;31.29;102379.09;4921772;28;45378;-67
2022/08/06 10:25:22;;;;;;;;;1.75;0.00;;;;;23.75;31.11;102366.19;4923069;28;45502;-68
2022/08/06 10:27:49;;;;;;;;;0.50;0.50;;;;;23.82;31.43;102369.19;4922683;28;45319;-67
2022/08/06 10:30:15;;;;;;;;;0.00;0.00;;;;;23.94;31.13;102376.19;4922645;28;46017;-69
2022/08/06 10:32:48;;;;;;;;;0.00;0.00;;;;;23.93;30.80;102375.31;4922851;28;45587;-63
2022/08/06 10:35:19;;;;;;;;;1.00;1.00;;;;;24.00;30.76;102361.31;4922146;28;45549;-63
2022/08/06 10:37:51;;;;;;;;;1.00;1.00;;;;;24.07;30.91;102360.59;4922716;28;45311;-62
2022/08/06 10:40:20;;;;;;;;;1.75;0.75;;;;;24.18;30.82;102357.81;4922154;28;46284;-65
2022/08/06 10:42:46;;;;;;;;;1.00;1.00;;;;;24.23;31.00;102354.66;4924785;28;45430;-67
2022/08/06 10:45:13;;;;;;;;;1.75;0.75;;;;;24.30;30.47;102363.88;4926286;28;45330;-67
2022/08/06 10:47:39;;;;;;;;;0.75;0.75;;;;;24.34;30.57;102359.97;4926166;28;45312;-66
2022/08/06 10:50:06;;;;;;;;;1.00;1.00;;;;;24.41;31.01;102350.34;4924311;28;47009;-67
2022/08/06 10:52:31;;;;;;;;;1.00;1.00;;;;;24.48;30.90;102361.38;4925344;28;45393;-64
2022/08/06 10:54:59;;;;;;;;;0.00;0.00;;;;;24.54;30.44;102346.47;4926099;28;45309;-67
2022/08/06 10:57:26;;;;;;;;;2.00;0.75;;;;;24.59;30.73;102347.75;4926024;28;45265;-69
2022/08/06 10:59:53;;;;;;;;;0.50;0.50;;;;;24.60;30.46;102356.69;4925337;28;45401;-66
2022/08/06 11:02:45;;;;;;;;;6.75;5.50;;;;;24.56;29.51;102334.56;4940617;28;45363;-67
2022/08/06 11:05:15;;;;;;;;;2.50;2.00;;;;;24.56;29.65;102339.09;4926131;28;45548;-68
2022/08/06 11:08:05;;;;;;;;;0.50;0.25;;;;;24.59;29.38;102336.97;4925505;28;45430;-67
2022/08/06 11:11:12;;;;;;;;;0.75;0.75;;;;;24.61;29.62;102336.84;4924078;28;45715;-64
2022/08/06 11:13:53;;;;;;;;;0.75;0.75;;;;;24.57;29.58;102332.72;4925511;28;45354;-65
2022/08/06 11:16:26;;;;;;;;;1.50;1.25;;;;;24.56;29.41;102337.25;4925685;28;45252;-64
2022/08/06 11:19:36;;;;;;;;;0.50;0.50;;;;;24.51;29.04;102331.47;4925529;28;45516;-69
2022/08/06 11:22:02;;;;;;;;;2.00;0.25;;;;;24.48;29.24;102321.81;4922880;28;45712;-71
2022/08/06 11:24:27;;;;;;;;;2.75;0.75;;;;;24.53;28.95;102337.56;4925477;28;45629;-69
2022/08/06 11:26:53;;;;;;;;;1.00;1.00;;;;;24.55;29.15;102324.78;4924544;28;45537;-72
2022/08/06 11:29:18;;;;;;;;;2.00;0.00;;;;;24.56;29.39;102325.63;4925538;28;45472;-72
2022/08/06 11:31:49;;;;;;;;;0.00;0.00;;;;;24.60;29.12;102313.59;4925418;28;46292;-72
2022/08/06 11:34:17;;;;;;;;;2.00;1.00;;;;;24.65;28.98;102308.63;4925506;28;45451;-69
2022/08/06 11:36:55;;;;;;;;;0.00;0.00;;;;;24.70;28.60;102317.09;4925305;28;45322;-75
2022/08/06 11:39:23;;;;;;;;;0.25;0.25;;;;;24.69;28.75;102307.31;4925263;28;45468;-75
2022/08/06 11:41:58;;;;;;;;;1.75;1.00;;;;;24.76;28.43;102316.53;4925022;28;46304;-71
2022/08/06 11:44:31;;;;;;;;;0.50;0.50;;;;;24.82;28.62;102304.31;4925435;28;45253;-73